sensor_id;sensor_type;location;lat;lon;timestamp;P1;durP1;ratioP1;P2;durP2;ratioP2
61252;SDS011;47127;47.516;8.596;2023-10-08T00:02:04;9.82;;;4.30;;
61252;SDS011;47127;47.516;8.596;2023-10-08T00:04:31;10.77;;;3.83;;
61252;SDS011;47127;47.516;8.596;2023-10-08T00:07:04;9.88;;;4.03;;
61252;SDS011;47127;47.516;8.596;2023-10-08T00:09:34;10.25;;;3.55;;
61252;SDS011;47127;47.516;8.596;2023-10-08T00:12:03;12.18;;;4.00;;
61252;SDS011;47127;47.516;8.596;2023-10-08T00:14:29;9.10;;;3.70;;
61252;SDS011;47127;47.516;8.596;2023-10-08T00:16:56;9.00;;;3.97;;
61252;SDS011;47127;47.516;8.596;2023-10-08T00:19:22;11.57;;;4.20;;
61252;SDS011;47127;47.516;8.596;2023-10-08T00:21:49;9.07;;;3.80;;
61252;SDS011;47127;47.516;8.596;2023-10-08T00:24:18;9.18;;;3.72;;
61252;SDS011;47127;47.516;8.596;2023-10-08T00:26:43;9.18;;;3.65;;
61252;SDS011;47127;47.516;8.596;2023-10-08T00:29:09;9.07;;;3.70;;
61252;SDS011;47127;47.516;8.596;2023-10-08T00:31:41;11.25;;;4.22;;
61252;SDS011;47127;47.516;8.596;2023-10-08T00:34:13;9.45;;;3.53;;
61252;SDS011;47127;47.516;8.596;2023-10-08T00:36:42;8.45;;;3.80;;
61252;SDS011;47127;47.516;8.596;2023-10-08T00:39:11;10.73;;;4.28;;
61252;SDS011;47127;47.516;8.596;2023-10-08T00:41:45;11.43;;;3.75;;
61252;SDS011;47127;47.516;8.596;2023-10-08T00:44:11;15.15;;;4.38;;
61252;SDS011;47127;47.516;8.596;2023-10-08T00:46:40;11.45;;;4.00;;
61252;SDS011;47127;47.516;8.596;2023-10-08T00:49:12;15.40;;;4.43;;
61252;SDS011;47127;47.516;8.596;2023-10-08T00:51:58;12.25;;;5.18;;
61252;SDS011;47127;47.516;8.596;2023-10-08T00:54:37;11.77;;;5.32;;
61252;SDS011;47127;47.516;8.596;2023-10-08T00:57:23;9.68;;;4.57;;
61252;SDS011;47127;47.516;8.596;2023-10-08T00:59:52;8.75;;;4.20;;
61252;SDS011;47127;47.516;8.596;2023-10-08T01:02:27;9.52;;;4.22;;
61252;SDS011;47127;47.516;8.596;2023-10-08T01:05:15;13.38;;;4.75;;
61252;SDS011;47127;47.516;8.596;2023-10-08T01:07:45;11.07;;;4.22;;
61252;SDS011;47127;47.516;8.596;2023-10-08T01:10:15;11.27;;;4.30;;
61252;SDS011;47127;47.516;8.596;2023-10-08T01:12:45;11.15;;;4.30;;
61252;SDS011;47127;47.516;8.596;2023-10-08T01:15:30;12.27;;;4.43;;
61252;SDS011;47127;47.516;8.596;2023-10-08T01:17:57;8.88;;;4.10;;
61252;SDS011;47127;47.516;8.596;2023-10-08T01:20:28;7.47;;;3.13;;
61252;SDS011;47127;47.516;8.596;2023-10-08T01:23:07;10.85;;;3.60;;
61252;SDS011;47127;47.516;8.596;2023-10-08T01:25:38;11.63;;;4.20;;
61252;SDS011;47127;47.516;8.596;2023-10-08T01:28:08;11.60;;;3.83;;
61252;SDS011;47127;47.516;8.596;2023-10-08T01:30:43;8.02;;;3.40;;
61252;SDS011;47127;47.516;8.596;2023-10-08T01:33:12;10.00;;;4.53;;
61252;SDS011;47127;47.516;8.596;2023-10-08T01:35:41;11.23;;;4.07;;
61252;SDS011;47127;47.516;8.596;2023-10-08T01:38:07;10.98;;;3.97;;
61252;SDS011;47127;47.516;8.596;2023-10-08T01:40:38;12.95;;;4.03;;
61252;SDS011;47127;47.516;8.596;2023-10-08T01:43:04;9.65;;;3.92;;
61252;SDS011;47127;47.516;8.596;2023-10-08T01:45:30;13.85;;;3.92;;
61252;SDS011;47127;47.516;8.596;2023-10-08T01:47:57;12.15;;;4.00;;
61252;SDS011;47127;47.516;8.596;2023-10-08T01:50:23;9.52;;;3.67;;
61252;SDS011;47127;47.516;8.596;2023-10-08T01:52:54;7.43;;;3.58;;
61252;SDS011;47127;47.516;8.596;2023-10-08T01:55:20;10.30;;;3.78;;
61252;SDS011;47127;47.516;8.596;2023-10-08T01:57:48;10.35;;;4.00;;
61252;SDS011;47127;47.516;8.596;2023-10-08T02:00:16;9.20;;;4.07;;
61252;SDS011;47127;47.516;8.596;2023-10-08T02:02:45;11.25;;;4.25;;
61252;SDS011;47127;47.516;8.596;2023-10-08T02:05:23;12.98;;;4.32;;
61252;SDS011;47127;47.516;8.596;2023-10-08T02:07:48;9.20;;;4.03;;
61252;SDS011;47127;47.516;8.596;2023-10-08T02:10:14;10.13;;;3.83;;
61252;SDS011;47127;47.516;8.596;2023-10-08T02:12:40;9.50;;;3.80;;
61252;SDS011;47127;47.516;8.596;2023-10-08T02:15:06;11.63;;;4.20;;
61252;SDS011;47127;47.516;8.596;2023-10-08T02:17:33;11.60;;;4.35;;
61252;SDS011;47127;47.516;8.596;2023-10-08T02:19:59;16.40;;;4.18;;
61252;SDS011;47127;47.516;8.596;2023-10-08T02:22:25;12.32;;;4.03;;
61252;SDS011;47127;47.516;8.596;2023-10-08T02:24:51;12.18;;;3.85;;
61252;SDS011;47127;47.516;8.596;2023-10-08T02:27:18;9.35;;;4.05;;
61252;SDS011;47127;47.516;8.596;2023-10-08T02:29:44;10.63;;;4.40;;
61252;SDS011;47127;47.516;8.596;2023-10-08T02:32:09;11.00;;;4.00;;
61252;SDS011;47127;47.516;8.596;2023-10-08T02:34:35;9.75;;;3.60;;
61252;SDS011;47127;47.516;8.596;2023-10-08T02:37:01;12.25;;;4.22;;
61252;SDS011;47127;47.516;8.596;2023-10-08T02:39:28;10.15;;;3.75;;
61252;SDS011;47127;47.516;8.596;2023-10-08T02:41:55;10.30;;;3.45;;
61252;SDS011;47127;47.516;8.596;2023-10-08T02:44:24;10.68;;;4.25;;
61252;SDS011;47127;47.516;8.596;2023-10-08T02:46:51;11.50;;;3.83;;
61252;SDS011;47127;47.516;8.596;2023-10-08T02:49:18;12.60;;;4.50;;
61252;SDS011;47127;47.516;8.596;2023-10-08T02:51:54;8.32;;;3.35;;
61252;SDS011;47127;47.516;8.596;2023-10-08T02:54:21;10.88;;;4.07;;
61252;SDS011;47127;47.516;8.596;2023-10-08T02:56:58;9.57;;;3.85;;
61252;SDS011;47127;47.516;8.596;2023-10-08T02:59:30;10.27;;;3.45;;
61252;SDS011;47127;47.516;8.596;2023-10-08T03:04:40;11.57;;;4.10;;
61252;SDS011;47127;47.516;8.596;2023-10-08T03:07:10;13.23;;;3.92;;
61252;SDS011;47127;47.516;8.596;2023-10-08T03:12:15;10.57;;;4.15;;
61252;SDS011;47127;47.516;8.596;2023-10-08T03:14:42;9.30;;;4.38;;
61252;SDS011;47127;47.516;8.596;2023-10-08T03:17:25;11.05;;;4.63;;
61252;SDS011;47127;47.516;8.596;2023-10-08T03:19:53;12.20;;;4.47;;
61252;SDS011;47127;47.516;8.596;2023-10-08T03:22:27;11.05;;;4.05;;
61252;SDS011;47127;47.516;8.596;2023-10-08T03:24:58;9.88;;;3.85;;
61252;SDS011;47127;47.516;8.596;2023-10-08T03:27:39;10.35;;;4.15;;
61252;SDS011;47127;47.516;8.596;2023-10-08T03:30:07;14.98;;;5.03;;
61252;SDS011;47127;47.516;8.596;2023-10-08T03:32:39;9.73;;;4.15;;
61252;SDS011;47127;47.516;8.596;2023-10-08T03:35:07;12.02;;;4.03;;
61252;SDS011;47127;47.516;8.596;2023-10-08T03:37:35;10.52;;;4.10;;
61252;SDS011;47127;47.516;8.596;2023-10-08T03:40:07;10.07;;;3.88;;
61252;SDS011;47127;47.516;8.596;2023-10-08T03:43:07;9.75;;;4.22;;
61252;SDS011;47127;47.516;8.596;2023-10-08T03:45:45;10.73;;;3.40;;
61252;SDS011;47127;47.516;8.596;2023-10-08T03:48:18;14.80;;;3.40;;
61252;SDS011;47127;47.516;8.596;2023-10-08T03:50:47;9.80;;;3.60;;
61252;SDS011;47127;47.516;8.596;2023-10-08T03:53:21;11.68;;;3.92;;
61252;SDS011;47127;47.516;8.596;2023-10-08T03:55:48;10.50;;;4.25;;
61252;SDS011;47127;47.516;8.596;2023-10-08T03:58:17;11.25;;;4.63;;
61252;SDS011;47127;47.516;8.596;2023-10-08T04:01:10;10.00;;;4.10;;
61252;SDS011;47127;47.516;8.596;2023-10-08T04:03:43;13.80;;;5.15;;
61252;SDS011;47127;47.516;8.596;2023-10-08T04:06:29;9.98;;;4.25;;
61252;SDS011;47127;47.516;8.596;2023-10-08T04:08:59;11.50;;;4.45;;
61252;SDS011;47127;47.516;8.596;2023-10-08T04:11:34;13.40;;;4.82;;
61252;SDS011;47127;47.516;8.596;2023-10-08T04:14:01;10.63;;;4.10;;
61252;SDS011;47127;47.516;8.596;2023-10-08T04:16:27;9.15;;;4.10;;
61252;SDS011;47127;47.516;8.596;2023-10-08T04:18:54;10.65;;;4.70;;
61252;SDS011;47127;47.516;8.596;2023-10-08T04:21:28;10.35;;;4.70;;
61252;SDS011;47127;47.516;8.596;2023-10-08T04:23:54;13.15;;;4.88;;
61252;SDS011;47127;47.516;8.596;2023-10-08T04:26:23;10.70;;;4.20;;
61252;SDS011;47127;47.516;8.596;2023-10-08T04:28:50;15.40;;;5.00;;
61252;SDS011;47127;47.516;8.596;2023-10-08T04:31:30;13.13;;;4.53;;
61252;SDS011;47127;47.516;8.596;2023-10-08T04:34:06;12.57;;;4.95;;
61252;SDS011;47127;47.516;8.596;2023-10-08T04:36:41;10.93;;;4.20;;
61252;SDS011;47127;47.516;8.596;2023-10-08T04:39:11;10.13;;;4.68;;
61252;SDS011;47127;47.516;8.596;2023-10-08T04:41:46;12.32;;;4.68;;
61252;SDS011;47127;47.516;8.596;2023-10-08T04:44:19;10.15;;;3.90;;
61252;SDS011;47127;47.516;8.596;2023-10-08T04:46:47;9.05;;;3.85;;
61252;SDS011;47127;47.516;8.596;2023-10-08T04:49:14;15.25;;;3.80;;
61252;SDS011;47127;47.516;8.596;2023-10-08T04:51:58;9.07;;;4.20;;
61252;SDS011;47127;47.516;8.596;2023-10-08T04:54:25;9.00;;;3.83;;
61252;SDS011;47127;47.516;8.596;2023-10-08T04:57:00;11.90;;;3.35;;
61252;SDS011;47127;47.516;8.596;2023-10-08T04:59:31;11.45;;;3.55;;
61252;SDS011;47127;47.516;8.596;2023-10-08T05:02:03;9.23;;;3.70;;
61252;SDS011;47127;47.516;8.596;2023-10-08T05:04:50;15.43;;;3.72;;
61252;SDS011;47127;47.516;8.596;2023-10-08T05:07:24;13.10;;;4.70;;
61252;SDS011;47127;47.516;8.596;2023-10-08T05:10:19;11.38;;;3.97;;
61252;SDS011;47127;47.516;8.596;2023-10-08T05:12:51;9.85;;;3.55;;
61252;SDS011;47127;47.516;8.596;2023-10-08T05:15:40;9.82;;;3.75;;
61252;SDS011;47127;47.516;8.596;2023-10-08T05:18:27;10.30;;;4.00;;
61252;SDS011;47127;47.516;8.596;2023-10-08T05:21:13;11.63;;;3.92;;
61252;SDS011;47127;47.516;8.596;2023-10-08T05:23:50;11.93;;;4.25;;
61252;SDS011;47127;47.516;8.596;2023-10-08T05:26:34;10.27;;;3.67;;
61252;SDS011;47127;47.516;8.596;2023-10-08T05:29:14;9.18;;;3.67;;
61252;SDS011;47127;47.516;8.596;2023-10-08T05:32:15;13.13;;;4.05;;
61252;SDS011;47127;47.516;8.596;2023-10-08T05:35:03;12.98;;;3.67;;
61252;SDS011;47127;47.516;8.596;2023-10-08T05:37:48;13.60;;;3.90;;
61252;SDS011;47127;47.516;8.596;2023-10-08T05:40:17;13.43;;;4.13;;
61252;SDS011;47127;47.516;8.596;2023-10-08T05:43:08;10.57;;;3.55;;
61252;SDS011;47127;47.516;8.596;2023-10-08T05:45:48;10.23;;;4.00;;
61252;SDS011;47127;47.516;8.596;2023-10-08T05:48:33;9.75;;;3.55;;
61252;SDS011;47127;47.516;8.596;2023-10-08T05:53:48;9.32;;;3.75;;
61252;SDS011;47127;47.516;8.596;2023-10-08T05:56:22;11.35;;;3.90;;
61252;SDS011;47127;47.516;8.596;2023-10-08T05:58:54;11.23;;;3.72;;
61252;SDS011;47127;47.516;8.596;2023-10-08T06:01:39;13.90;;;4.05;;
61252;SDS011;47127;47.516;8.596;2023-10-08T06:04:06;12.73;;;3.97;;
61252;SDS011;47127;47.516;8.596;2023-10-08T06:07:06;11.10;;;3.70;;
61252;SDS011;47127;47.516;8.596;2023-10-08T06:09:45;10.30;;;3.80;;
61252;SDS011;47127;47.516;8.596;2023-10-08T06:12:26;11.18;;;3.78;;
61252;SDS011;47127;47.516;8.596;2023-10-08T06:14:55;13.27;;;3.67;;
61252;SDS011;47127;47.516;8.596;2023-10-08T06:17:33;9.20;;;3.85;;
61252;SDS011;47127;47.516;8.596;2023-10-08T06:22:50;14.50;;;4.10;;
61252;SDS011;47127;47.516;8.596;2023-10-08T06:25:19;10.80;;;3.65;;
61252;SDS011;47127;47.516;8.596;2023-10-08T06:27:49;11.68;;;3.63;;
61252;SDS011;47127;47.516;8.596;2023-10-08T06:30:20;11.40;;;3.92;;
61252;SDS011;47127;47.516;8.596;2023-10-08T06:32:46;10.68;;;4.10;;
61252;SDS011;47127;47.516;8.596;2023-10-08T06:35:13;10.15;;;4.13;;
61252;SDS011;47127;47.516;8.596;2023-10-08T06:37:44;12.52;;;3.75;;
61252;SDS011;47127;47.516;8.596;2023-10-08T06:40:11;12.60;;;4.03;;
61252;SDS011;47127;47.516;8.596;2023-10-08T06:43:05;13.95;;;4.30;;
61252;SDS011;47127;47.516;8.596;2023-10-08T06:45:42;15.63;;;4.22;;
61252;SDS011;47127;47.516;8.596;2023-10-08T06:48:09;15.80;;;4.57;;
61252;SDS011;47127;47.516;8.596;2023-10-08T06:50:42;12.85;;;4.28;;
61252;SDS011;47127;47.516;8.596;2023-10-08T06:53:12;13.02;;;4.63;;
61252;SDS011;47127;47.516;8.596;2023-10-08T06:55:39;11.75;;;5.07;;
61252;SDS011;47127;47.516;8.596;2023-10-08T06:58:06;11.07;;;3.70;;
61252;SDS011;47127;47.516;8.596;2023-10-08T07:00:37;14.15;;;5.18;;
61252;SDS011;47127;47.516;8.596;2023-10-08T07:03:12;12.00;;;4.53;;
61252;SDS011;47127;47.516;8.596;2023-10-08T07:05:43;13.95;;;5.18;;
61252;SDS011;47127;47.516;8.596;2023-10-08T07:08:22;13.52;;;4.53;;
61252;SDS011;47127;47.516;8.596;2023-10-08T07:10:48;12.20;;;4.55;;
61252;SDS011;47127;47.516;8.596;2023-10-08T07:13:15;11.38;;;4.40;;
61252;SDS011;47127;47.516;8.596;2023-10-08T07:15:43;15.45;;;5.05;;
61252;SDS011;47127;47.516;8.596;2023-10-08T07:18:10;14.15;;;5.15;;
61252;SDS011;47127;47.516;8.596;2023-10-08T07:20:38;13.77;;;5.10;;
61252;SDS011;47127;47.516;8.596;2023-10-08T07:23:07;12.95;;;5.07;;
61252;SDS011;47127;47.516;8.596;2023-10-08T07:25:59;12.38;;;4.55;;
61252;SDS011;47127;47.516;8.596;2023-10-08T07:28:43;15.68;;;5.13;;
61252;SDS011;47127;47.516;8.596;2023-10-08T07:31:16;13.80;;;5.30;;
61252;SDS011;47127;47.516;8.596;2023-10-08T07:33:50;10.48;;;4.38;;
61252;SDS011;47127;47.516;8.596;2023-10-08T07:36:25;14.05;;;4.55;;
61252;SDS011;47127;47.516;8.596;2023-10-08T07:38:55;13.10;;;4.68;;
61252;SDS011;47127;47.516;8.596;2023-10-08T07:41:20;14.52;;;5.05;;
61252;SDS011;47127;47.516;8.596;2023-10-08T07:43:49;11.68;;;5.47;;
61252;SDS011;47127;47.516;8.596;2023-10-08T07:46:24;10.65;;;4.45;;
61252;SDS011;47127;47.516;8.596;2023-10-08T07:48:53;13.30;;;4.78;;
61252;SDS011;47127;47.516;8.596;2023-10-08T07:51:19;11.35;;;5.00;;
61252;SDS011;47127;47.516;8.596;2023-10-08T07:53:48;9.55;;;4.50;;
61252;SDS011;47127;47.516;8.596;2023-10-08T07:56:19;12.73;;;4.53;;
61252;SDS011;47127;47.516;8.596;2023-10-08T07:58:44;10.50;;;4.60;;
61252;SDS011;47127;47.516;8.596;2023-10-08T08:01:10;20.08;;;5.03;;
61252;SDS011;47127;47.516;8.596;2023-10-08T08:03:38;12.93;;;5.45;;
61252;SDS011;47127;47.516;8.596;2023-10-08T08:06:10;12.55;;;5.07;;
61252;SDS011;47127;47.516;8.596;2023-10-08T08:08:36;11.15;;;4.85;;
61252;SDS011;47127;47.516;8.596;2023-10-08T08:11:06;12.90;;;5.50;;
61252;SDS011;47127;47.516;8.596;2023-10-08T08:13:37;12.05;;;4.78;;
61252;SDS011;47127;47.516;8.596;2023-10-08T08:16:10;11.00;;;4.63;;
61252;SDS011;47127;47.516;8.596;2023-10-08T08:18:45;10.23;;;4.78;;
61252;SDS011;47127;47.516;8.596;2023-10-08T08:21:12;12.13;;;5.07;;
61252;SDS011;47127;47.516;8.596;2023-10-08T08:23:42;13.35;;;4.82;;
61252;SDS011;47127;47.516;8.596;2023-10-08T08:26:18;13.40;;;5.57;;
61252;SDS011;47127;47.516;8.596;2023-10-08T08:28:58;13.57;;;5.47;;
61252;SDS011;47127;47.516;8.596;2023-10-08T08:31:26;10.88;;;4.60;;
61252;SDS011;47127;47.516;8.596;2023-10-08T08:34:00;14.13;;;4.78;;
61252;SDS011;47127;47.516;8.596;2023-10-08T08:36:42;12.90;;;4.68;;
61252;SDS011;47127;47.516;8.596;2023-10-08T08:39:11;12.40;;;4.45;;
61252;SDS011;47127;47.516;8.596;2023-10-08T08:41:48;11.48;;;4.35;;
61252;SDS011;47127;47.516;8.596;2023-10-08T08:44:18;12.57;;;4.68;;
61252;SDS011;47127;47.516;8.596;2023-10-08T08:46:45;16.92;;;5.30;;
61252;SDS011;47127;47.516;8.596;2023-10-08T08:49:12;12.38;;;4.45;;
61252;SDS011;47127;47.516;8.596;2023-10-08T08:51:38;16.00;;;5.13;;
61252;SDS011;47127;47.516;8.596;2023-10-08T08:54:04;12.68;;;5.15;;
61252;SDS011;47127;47.516;8.596;2023-10-08T08:56:33;8.77;;;4.20;;
61252;SDS011;47127;47.516;8.596;2023-10-08T08:59:01;10.30;;;4.65;;
61252;SDS011;47127;47.516;8.596;2023-10-08T09:01:29;14.00;;;5.25;;
61252;SDS011;47127;47.516;8.596;2023-10-08T09:03:59;11.32;;;4.80;;
61252;SDS011;47127;47.516;8.596;2023-10-08T09:06:34;11.02;;;4.85;;
61252;SDS011;47127;47.516;8.596;2023-10-08T09:09:03;15.65;;;5.25;;
61252;SDS011;47127;47.516;8.596;2023-10-08T09:11:48;12.05;;;3.97;;
61252;SDS011;47127;47.516;8.596;2023-10-08T09:14:19;11.00;;;3.92;;
61252;SDS011;47127;47.516;8.596;2023-10-08T09:16:46;11.77;;;4.15;;
61252;SDS011;47127;47.516;8.596;2023-10-08T09:19:12;12.98;;;4.47;;
61252;SDS011;47127;47.516;8.596;2023-10-08T09:21:43;15.02;;;5.22;;
61252;SDS011;47127;47.516;8.596;2023-10-08T09:24:24;12.85;;;4.20;;
61252;SDS011;47127;47.516;8.596;2023-10-08T09:26:51;14.90;;;4.72;;
61252;SDS011;47127;47.516;8.596;2023-10-08T09:29:22;12.15;;;4.57;;
61252;SDS011;47127;47.516;8.596;2023-10-08T09:31:51;12.50;;;4.32;;
61252;SDS011;47127;47.516;8.596;2023-10-08T09:34:21;17.90;;;3.65;;
61252;SDS011;47127;47.516;8.596;2023-10-08T09:36:56;11.68;;;3.20;;
61252;SDS011;47127;47.516;8.596;2023-10-08T09:39:22;11.00;;;3.25;;
61252;SDS011;47127;47.516;8.596;2023-10-08T09:41:50;8.63;;;2.92;;
61252;SDS011;47127;47.516;8.596;2023-10-08T09:44:19;12.82;;;3.20;;
61252;SDS011;47127;47.516;8.596;2023-10-08T09:46:46;18.00;;;4.07;;
61252;SDS011;47127;47.516;8.596;2023-10-08T09:49:17;12.95;;;3.60;;
61252;SDS011;47127;47.516;8.596;2023-10-08T09:51:47;16.27;;;3.83;;
61252;SDS011;47127;47.516;8.596;2023-10-08T09:56:43;11.25;;;3.50;;
61252;SDS011;47127;47.516;8.596;2023-10-08T09:59:10;10.90;;;3.65;;
61252;SDS011;47127;47.516;8.596;2023-10-08T10:01:41;16.33;;;4.63;;
61252;SDS011;47127;47.516;8.596;2023-10-08T10:04:09;12.23;;;3.85;;
61252;SDS011;47127;47.516;8.596;2023-10-08T10:06:35;15.05;;;4.10;;
61252;SDS011;47127;47.516;8.596;2023-10-08T10:09:01;13.82;;;3.90;;
61252;SDS011;47127;47.516;8.596;2023-10-08T10:11:33;13.32;;;4.10;;
61252;SDS011;47127;47.516;8.596;2023-10-08T10:14:00;14.15;;;3.92;;
61252;SDS011;47127;47.516;8.596;2023-10-08T10:16:31;12.45;;;3.33;;
61252;SDS011;47127;47.516;8.596;2023-10-08T10:18:59;12.73;;;3.97;;
61252;SDS011;47127;47.516;8.596;2023-10-08T10:21:32;13.75;;;3.85;;
61252;SDS011;47127;47.516;8.596;2023-10-08T10:23:58;10.20;;;3.30;;
61252;SDS011;47127;47.516;8.596;2023-10-08T10:31:41;12.35;;;4.18;;
61252;SDS011;47127;47.516;8.596;2023-10-08T10:34:10;13.95;;;4.03;;
61252;SDS011;47127;47.516;8.596;2023-10-08T10:36:38;17.15;;;4.45;;
61252;SDS011;47127;47.516;8.596;2023-10-08T10:39:07;11.30;;;3.90;;
61252;SDS011;47127;47.516;8.596;2023-10-08T10:41:44;10.90;;;3.90;;
61252;SDS011;47127;47.516;8.596;2023-10-08T10:44:12;14.23;;;3.90;;
61252;SDS011;47127;47.516;8.596;2023-10-08T10:46:41;12.10;;;4.45;;
61252;SDS011;47127;47.516;8.596;2023-10-08T10:49:08;13.23;;;3.75;;
61252;SDS011;47127;47.516;8.596;2023-10-08T10:51:46;12.48;;;3.83;;
61252;SDS011;47127;47.516;8.596;2023-10-08T10:54:13;13.50;;;3.70;;
61252;SDS011;47127;47.516;8.596;2023-10-08T10:56:51;14.15;;;4.20;;
61252;SDS011;47127;47.516;8.596;2023-10-08T10:59:37;13.80;;;4.07;;
61252;SDS011;47127;47.516;8.596;2023-10-08T11:02:03;11.77;;;3.75;;
61252;SDS011;47127;47.516;8.596;2023-10-08T11:04:46;16.05;;;4.70;;
61252;SDS011;47127;47.516;8.596;2023-10-08T11:07:16;14.95;;;4.07;;
61252;SDS011;47127;47.516;8.596;2023-10-08T11:09:44;15.18;;;4.07;;
61252;SDS011;47127;47.516;8.596;2023-10-08T11:12:12;13.00;;;4.10;;
61252;SDS011;47127;47.516;8.596;2023-10-08T11:14:43;13.63;;;4.20;;
61252;SDS011;47127;47.516;8.596;2023-10-08T11:17:12;15.18;;;4.38;;
61252;SDS011;47127;47.516;8.596;2023-10-08T11:19:44;14.98;;;4.75;;
61252;SDS011;47127;47.516;8.596;2023-10-08T11:22:13;16.45;;;5.43;;
61252;SDS011;47127;47.516;8.596;2023-10-08T11:24:44;15.00;;;3.92;;
61252;SDS011;47127;47.516;8.596;2023-10-08T11:27:13;13.93;;;4.20;;
61252;SDS011;47127;47.516;8.596;2023-10-08T11:29:45;16.55;;;4.25;;
61252;SDS011;47127;47.516;8.596;2023-10-08T11:32:13;13.30;;;3.63;;
61252;SDS011;47127;47.516;8.596;2023-10-08T11:34:42;13.07;;;4.07;;
61252;SDS011;47127;47.516;8.596;2023-10-08T11:37:14;16.95;;;4.07;;
61252;SDS011;47127;47.516;8.596;2023-10-08T11:39:51;13.82;;;3.60;;
61252;SDS011;47127;47.516;8.596;2023-10-08T11:42:18;13.80;;;4.47;;
61252;SDS011;47127;47.516;8.596;2023-10-08T11:45:10;15.43;;;4.07;;
61252;SDS011;47127;47.516;8.596;2023-10-08T11:47:52;13.65;;;4.13;;
61252;SDS011;47127;47.516;8.596;2023-10-08T11:50:24;15.60;;;4.15;;
61252;SDS011;47127;47.516;8.596;2023-10-08T11:52:59;14.40;;;3.37;;
61252;SDS011;47127;47.516;8.596;2023-10-08T11:55:31;13.23;;;4.20;;
61252;SDS011;47127;47.516;8.596;2023-10-08T11:58:02;12.52;;;3.65;;
61252;SDS011;47127;47.516;8.596;2023-10-08T12:00:36;13.65;;;4.70;;
61252;SDS011;47127;47.516;8.596;2023-10-08T12:03:10;15.57;;;4.55;;
61252;SDS011;47127;47.516;8.596;2023-10-08T12:05:43;17.08;;;4.75;;
61252;SDS011;47127;47.516;8.596;2023-10-08T12:08:16;18.77;;;4.35;;
61252;SDS011;47127;47.516;8.596;2023-10-08T12:10:43;16.63;;;4.30;;
61252;SDS011;47127;47.516;8.596;2023-10-08T12:13:09;16.77;;;4.88;;
61252;SDS011;47127;47.516;8.596;2023-10-08T12:15:35;19.00;;;4.43;;
61252;SDS011;47127;47.516;8.596;2023-10-08T12:18:06;13.15;;;3.72;;
61252;SDS011;47127;47.516;8.596;2023-10-08T12:20:41;19.63;;;4.28;;
61252;SDS011;47127;47.516;8.596;2023-10-08T12:23:11;18.10;;;4.32;;
61252;SDS011;47127;47.516;8.596;2023-10-08T12:25:45;16.40;;;4.72;;
61252;SDS011;47127;47.516;8.596;2023-10-08T12:28:16;13.98;;;3.92;;
61252;SDS011;47127;47.516;8.596;2023-10-08T12:30:44;14.05;;;3.53;;
61252;SDS011;47127;47.516;8.596;2023-10-08T12:33:10;16.85;;;4.28;;
61252;SDS011;47127;47.516;8.596;2023-10-08T12:35:38;14.93;;;4.70;;
61252;SDS011;47127;47.516;8.596;2023-10-08T12:38:05;14.40;;;3.75;;
61252;SDS011;47127;47.516;8.596;2023-10-08T12:40:31;17.95;;;4.70;;
61252;SDS011;47127;47.516;8.596;2023-10-08T12:43:15;16.95;;;4.30;;
61252;SDS011;47127;47.516;8.596;2023-10-08T12:45:45;15.80;;;4.68;;
61252;SDS011;47127;47.516;8.596;2023-10-08T12:48:27;16.80;;;4.43;;
61252;SDS011;47127;47.516;8.596;2023-10-08T12:50:54;16.60;;;4.82;;
61252;SDS011;47127;47.516;8.596;2023-10-08T12:53:24;15.20;;;4.13;;
61252;SDS011;47127;47.516;8.596;2023-10-08T12:56:03;15.85;;;4.40;;
61252;SDS011;47127;47.516;8.596;2023-10-08T12:58:31;16.27;;;4.22;;
61252;SDS011;47127;47.516;8.596;2023-10-08T13:01:06;17.98;;;4.93;;
61252;SDS011;47127;47.516;8.596;2023-10-08T13:03:35;18.42;;;4.85;;
61252;SDS011;47127;47.516;8.596;2023-10-08T13:06:06;23.70;;;5.07;;
61252;SDS011;47127;47.516;8.596;2023-10-08T13:08:36;17.77;;;4.40;;
61252;SDS011;47127;47.516;8.596;2023-10-08T13:11:02;20.27;;;4.65;;
61252;SDS011;47127;47.516;8.596;2023-10-08T13:13:30;18.02;;;4.93;;
61252;SDS011;47127;47.516;8.596;2023-10-08T13:15:57;18.98;;;5.20;;
61252;SDS011;47127;47.516;8.596;2023-10-08T13:18:25;19.98;;;3.90;;
61252;SDS011;47127;47.516;8.596;2023-10-08T13:20:51;19.35;;;4.53;;
61252;SDS011;47127;47.516;8.596;2023-10-08T13:23:17;19.60;;;5.15;;
61252;SDS011;47127;47.516;8.596;2023-10-08T13:25:51;22.40;;;4.28;;
61252;SDS011;47127;47.516;8.596;2023-10-08T13:28:23;21.45;;;4.82;;
61252;SDS011;47127;47.516;8.596;2023-10-08T13:30:52;23.95;;;5.28;;
61252;SDS011;47127;47.516;8.596;2023-10-08T13:33:19;23.83;;;5.47;;
61252;SDS011;47127;47.516;8.596;2023-10-08T13:35:45;22.90;;;5.03;;
61252;SDS011;47127;47.516;8.596;2023-10-08T13:38:14;23.05;;;5.38;;
61252;SDS011;47127;47.516;8.596;2023-10-08T13:40:41;16.58;;;4.18;;
61252;SDS011;47127;47.516;8.596;2023-10-08T13:43:26;15.93;;;4.47;;
61252;SDS011;47127;47.516;8.596;2023-10-08T13:45:58;20.27;;;4.53;;
61252;SDS011;47127;47.516;8.596;2023-10-08T13:48:30;16.10;;;4.63;;
61252;SDS011;47127;47.516;8.596;2023-10-08T13:50:58;20.52;;;5.28;;
61252;SDS011;47127;47.516;8.596;2023-10-08T13:53:28;15.73;;;4.60;;
61252;SDS011;47127;47.516;8.596;2023-10-08T13:55:58;18.67;;;5.05;;
61252;SDS011;47127;47.516;8.596;2023-10-08T13:58:26;25.83;;;5.25;;
61252;SDS011;47127;47.516;8.596;2023-10-08T14:00:54;22.17;;;5.07;;
61252;SDS011;47127;47.516;8.596;2023-10-08T14:03:21;16.30;;;4.90;;
61252;SDS011;47127;47.516;8.596;2023-10-08T14:05:47;19.70;;;5.25;;
61252;SDS011;47127;47.516;8.596;2023-10-08T14:08:19;19.02;;;4.90;;
61252;SDS011;47127;47.516;8.596;2023-10-08T14:10:47;17.77;;;4.85;;
61252;SDS011;47127;47.516;8.596;2023-10-08T14:13:14;27.38;;;5.63;;
61252;SDS011;47127;47.516;8.596;2023-10-08T14:15:44;15.00;;;4.18;;
61252;SDS011;47127;47.516;8.596;2023-10-08T14:18:13;22.60;;;5.38;;
61252;SDS011;47127;47.516;8.596;2023-10-08T14:20:42;19.17;;;4.70;;
61252;SDS011;47127;47.516;8.596;2023-10-08T14:23:11;21.13;;;5.18;;
61252;SDS011;47127;47.516;8.596;2023-10-08T14:25:37;24.52;;;5.22;;
61252;SDS011;47127;47.516;8.596;2023-10-08T14:28:09;17.52;;;4.57;;
61252;SDS011;47127;47.516;8.596;2023-10-08T14:30:46;17.38;;;4.20;;
61252;SDS011;47127;47.516;8.596;2023-10-08T14:33:21;18.27;;;4.28;;
61252;SDS011;47127;47.516;8.596;2023-10-08T14:35:51;23.25;;;5.18;;
61252;SDS011;47127;47.516;8.596;2023-10-08T14:38:36;16.90;;;4.47;;
61252;SDS011;47127;47.516;8.596;2023-10-08T14:41:22;21.00;;;4.53;;
61252;SDS011;47127;47.516;8.596;2023-10-08T14:44:07;24.85;;;4.35;;
61252;SDS011;47127;47.516;8.596;2023-10-08T14:46:33;20.98;;;5.05;;
61252;SDS011;47127;47.516;8.596;2023-10-08T14:49:01;21.08;;;5.15;;
61252;SDS011;47127;47.516;8.596;2023-10-08T14:51:27;20.35;;;5.50;;
61252;SDS011;47127;47.516;8.596;2023-10-08T14:53:55;22.67;;;5.20;;
61252;SDS011;47127;47.516;8.596;2023-10-08T14:56:21;20.33;;;5.28;;
61252;SDS011;47127;47.516;8.596;2023-10-08T14:58:48;20.15;;;4.72;;
61252;SDS011;47127;47.516;8.596;2023-10-08T15:01:14;18.10;;;4.63;;
61252;SDS011;47127;47.516;8.596;2023-10-08T15:03:39;18.70;;;4.30;;
61252;SDS011;47127;47.516;8.596;2023-10-08T15:06:05;17.35;;;4.35;;
61252;SDS011;47127;47.516;8.596;2023-10-08T15:08:32;16.23;;;4.53;;
61252;SDS011;47127;47.516;8.596;2023-10-08T15:10:58;22.58;;;5.55;;
61252;SDS011;47127;47.516;8.596;2023-10-08T15:13:25;23.60;;;4.38;;
61252;SDS011;47127;47.516;8.596;2023-10-08T15:15:51;16.23;;;4.40;;
61252;SDS011;47127;47.516;8.596;2023-10-08T15:18:17;19.27;;;5.15;;
61252;SDS011;47127;47.516;8.596;2023-10-08T15:20:43;14.88;;;4.68;;